sensor_id;sensor_type;location;lat;lon;timestamp;P1;durP1;ratioP1;P2;durP2;ratioP2
24261;SDS011;12385;51.412;5.540;2024-01-10T00:00:09;12.90;;;6.55;;
24261;SDS011;12385;51.412;5.540;2024-01-10T00:02:35;13.32;;;7.03;;
24261;SDS011;12385;51.412;5.540;2024-01-10T00:05:01;13.18;;;6.30;;
24261;SDS011;12385;51.412;5.540;2024-01-10T00:07:28;12.80;;;7.40;;
24261;SDS011;12385;51.412;5.540;2024-01-10T00:09:54;16.55;;;6.82;;
24261;SDS011;12385;51.412;5.540;2024-01-10T00:12:20;12.63;;;6.43;;
24261;SDS011;12385;51.412;5.540;2024-01-10T00:14:47;14.30;;;7.05;;
24261;SDS011;12385;51.412;5.540;2024-01-10T00:17:14;13.18;;;7.00;;
24261;SDS011;12385;51.412;5.540;2024-01-10T00:19:39;12.52;;;6.45;;
24261;SDS011;12385;51.412;5.540;2024-01-10T00:22:08;11.60;;;6.35;;
24261;SDS011;12385;51.412;5.540;2024-01-10T00:24:34;16.23;;;7.10;;
24261;SDS011;12385;51.412;5.540;2024-01-10T00:27:00;15.27;;;7.18;;
24261;SDS011;12385;51.412;5.540;2024-01-10T00:29:26;11.73;;;6.25;;
24261;SDS011;12385;51.412;5.540;2024-01-10T00:31:52;13.30;;;6.50;;
24261;SDS011;12385;51.412;5.540;2024-01-10T00:34:22;14.35;;;6.80;;
24261;SDS011;12385;51.412;5.540;2024-01-10T00:36:48;11.90;;;6.15;;
24261;SDS011;12385;51.412;5.540;2024-01-10T00:39:14;15.43;;;6.45;;
24261;SDS011;12385;51.412;5.540;2024-01-10T00:41:40;14.05;;;6.82;;
24261;SDS011;12385;51.412;5.540;2024-01-10T00:44:06;14.13;;;6.57;;
24261;SDS011;12385;51.412;5.540;2024-01-10T00:46:31;14.63;;;6.75;;
24261;SDS011;12385;51.412;5.540;2024-01-10T00:48:57;12.73;;;6.40;;
24261;SDS011;12385;51.412;5.540;2024-01-10T00:51:23;12.73;;;6.72;;
24261;SDS011;12385;51.412;5.540;2024-01-10T00:53:48;15.02;;;7.07;;
24261;SDS011;12385;51.412;5.540;2024-01-10T00:56:14;15.63;;;7.63;;
24261;SDS011;12385;51.412;5.540;2024-01-10T00:58:40;13.10;;;6.90;;
24261;SDS011;12385;51.412;5.540;2024-01-10T01:01:06;14.55;;;7.30;;
24261;SDS011;12385;51.412;5.540;2024-01-10T01:03:32;16.30;;;7.07;;
24261;SDS011;12385;51.412;5.540;2024-01-10T01:05:57;16.10;;;7.10;;
24261;SDS011;12385;51.412;5.540;2024-01-10T01:08:23;14.55;;;7.07;;
24261;SDS011;12385;51.412;5.540;2024-01-10T01:10:49;15.63;;;7.30;;
24261;SDS011;12385;51.412;5.540;2024-01-10T01:13:14;14.68;;;7.18;;
24261;SDS011;12385;51.412;5.540;2024-01-10T01:15:41;14.88;;;7.22;;
24261;SDS011;12385;51.412;5.540;2024-01-10T01:18:06;13.27;;;7.00;;
24261;SDS011;12385;51.412;5.540;2024-01-10T01:20:35;14.43;;;7.50;;
24261;SDS011;12385;51.412;5.540;2024-01-10T01:23:00;15.15;;;7.10;;
24261;SDS011;12385;51.412;5.540;2024-01-10T01:25:26;14.35;;;7.20;;
24261;SDS011;12385;51.412;5.540;2024-01-10T01:27:52;15.00;;;7.20;;
24261;SDS011;12385;51.412;5.540;2024-01-10T01:30:17;13.73;;;7.05;;
24261;SDS011;12385;51.412;5.540;2024-01-10T01:32:46;14.02;;;6.85;;
24261;SDS011;12385;51.412;5.540;2024-01-10T01:35:15;13.50;;;6.53;;
24261;SDS011;12385;51.412;5.540;2024-01-10T01:37:46;12.25;;;6.47;;
24261;SDS011;12385;51.412;5.540;2024-01-10T01:40:15;15.00;;;7.10;;
24261;SDS011;12385;51.412;5.540;2024-01-10T01:42:41;12.18;;;6.63;;
24261;SDS011;12385;51.412;5.540;2024-01-10T01:45:09;15.38;;;7.18;;
24261;SDS011;12385;51.412;5.540;2024-01-10T01:47:35;12.00;;;6.13;;
24261;SDS011;12385;51.412;5.540;2024-01-10T01:50:01;12.95;;;6.55;;
24261;SDS011;12385;51.412;5.540;2024-01-10T01:52:28;13.93;;;6.60;;
24261;SDS011;12385;51.412;5.540;2024-01-10T01:54:55;13.98;;;6.85;;
24261;SDS011;12385;51.412;5.540;2024-01-10T01:57:21;13.15;;;6.55;;
24261;SDS011;12385;51.412;5.540;2024-01-10T01:59:47;12.02;;;6.20;;
24261;SDS011;12385;51.412;5.540;2024-01-10T02:02:14;12.20;;;6.47;;
24261;SDS011;12385;51.412;5.540;2024-01-10T02:04:45;14.20;;;6.55;;
24261;SDS011;12385;51.412;5.540;2024-01-10T02:07:11;11.82;;;6.20;;
24261;SDS011;12385;51.412;5.540;2024-01-10T02:09:40;12.15;;;6.20;;
24261;SDS011;12385;51.412;5.540;2024-01-10T02:12:06;12.32;;;6.15;;
24261;SDS011;12385;51.412;5.540;2024-01-10T02:14:32;11.23;;;5.93;;
24261;SDS011;12385;51.412;5.540;2024-01-10T02:16:58;13.30;;;6.40;;
24261;SDS011;12385;51.412;5.540;2024-01-10T02:19:24;14.38;;;6.30;;
24261;SDS011;12385;51.412;5.540;2024-01-10T02:21:52;11.10;;;6.22;;
24261;SDS011;12385;51.412;5.540;2024-01-10T02:24:17;13.25;;;6.18;;
24261;SDS011;12385;51.412;5.540;2024-01-10T02:26:44;13.35;;;5.90;;
24261;SDS011;12385;51.412;5.540;2024-01-10T02:29:10;13.57;;;6.43;;
24261;SDS011;12385;51.412;5.540;2024-01-10T02:31:36;13.68;;;6.00;;
24261;SDS011;12385;51.412;5.540;2024-01-10T02:34:01;12.63;;;6.47;;
24261;SDS011;12385;51.412;5.540;2024-01-10T02:36:27;14.02;;;5.75;;
24261;SDS011;12385;51.412;5.540;2024-01-10T02:38:52;11.55;;;5.90;;
24261;SDS011;12385;51.412;5.540;2024-01-10T02:41:18;15.57;;;6.40;;
24261;SDS011;12385;51.412;5.540;2024-01-10T02:43:44;14.45;;;6.57;;
24261;SDS011;12385;51.412;5.540;2024-01-10T02:46:10;12.20;;;6.35;;
24261;SDS011;12385;51.412;5.540;2024-01-10T02:48:36;11.00;;;6.15;;
24261;SDS011;12385;51.412;5.540;2024-01-10T02:51:01;12.77;;;6.35;;
24261;SDS011;12385;51.412;5.540;2024-01-10T02:53:27;15.45;;;6.28;;
24261;SDS011;12385;51.412;5.540;2024-01-10T02:55:52;12.15;;;6.82;;
24261;SDS011;12385;51.412;5.540;2024-01-10T02:58:19;11.55;;;6.18;;
24261;SDS011;12385;51.412;5.540;2024-01-10T03:00:46;12.70;;;6.20;;
24261;SDS011;12385;51.412;5.540;2024-01-10T03:03:11;11.90;;;6.00;;
24261;SDS011;12385;51.412;5.540;2024-01-10T03:05:40;14.88;;;6.20;;
24261;SDS011;12385;51.412;5.540;2024-01-10T03:08:06;13.02;;;6.15;;
24261;SDS011;12385;51.412;5.540;2024-01-10T03:10:32;13.25;;;6.30;;
24261;SDS011;12385;51.412;5.540;2024-01-10T03:12:57;13.15;;;6.88;;
24261;SDS011;12385;51.412;5.540;2024-01-10T03:15:23;12.65;;;6.72;;
24261;SDS011;12385;51.412;5.540;2024-01-10T03:17:52;12.80;;;6.30;;
24261;SDS011;12385;51.412;5.540;2024-01-10T03:20:18;13.02;;;6.78;;
24261;SDS011;12385;51.412;5.540;2024-01-10T03:22:46;15.02;;;6.68;;
24261;SDS011;12385;51.412;5.540;2024-01-10T03:25:12;12.10;;;6.57;;
24261;SDS011;12385;51.412;5.540;2024-01-10T03:27:41;14.20;;;6.82;;
24261;SDS011;12385;51.412;5.540;2024-01-10T03:30:07;12.25;;;6.38;;
24261;SDS011;12385;51.412;5.540;2024-01-10T03:32:33;12.02;;;6.25;;
24261;SDS011;12385;51.412;5.540;2024-01-10T03:34:59;13.02;;;6.40;;
24261;SDS011;12385;51.412;5.540;2024-01-10T03:37:24;12.50;;;6.15;;
24261;SDS011;12385;51.412;5.540;2024-01-10T03:39:50;11.27;;;6.32;;
24261;SDS011;12385;51.412;5.540;2024-01-10T03:42:16;11.70;;;6.43;;
24261;SDS011;12385;51.412;5.540;2024-01-10T03:44:45;14.63;;;6.00;;
24261;SDS011;12385;51.412;5.540;2024-01-10T03:47:10;15.85;;;6.50;;
24261;SDS011;12385;51.412;5.540;2024-01-10T03:49:36;13.00;;;6.63;;
24261;SDS011;12385;51.412;5.540;2024-01-10T03:52:02;14.18;;;6.45;;
24261;SDS011;12385;51.412;5.540;2024-01-10T03:54:29;12.23;;;6.30;;
24261;SDS011;12385;51.412;5.540;2024-01-10T03:56:55;10.43;;;5.45;;
24261;SDS011;12385;51.412;5.540;2024-01-10T03:59:21;15.60;;;6.55;;
24261;SDS011;12385;51.412;5.540;2024-01-10T04:01:46;13.52;;;6.50;;
24261;SDS011;12385;51.412;5.540;2024-01-10T04:04:15;12.25;;;6.20;;
24261;SDS011;12385;51.412;5.540;2024-01-10T04:06:41;15.43;;;6.40;;
24261;SDS011;12385;51.412;5.540;2024-01-10T04:09:06;12.93;;;6.50;;
24261;SDS011;12385;51.412;5.540;2024-01-10T04:11:34;14.43;;;6.90;;
24261;SDS011;12385;51.412;5.540;2024-01-10T04:14:01;15.63;;;7.03;;
24261;SDS011;12385;51.412;5.540;2024-01-10T04:16:26;13.48;;;6.55;;
24261;SDS011;12385;51.412;5.540;2024-01-10T04:18:52;13.18;;;6.55;;
24261;SDS011;12385;51.412;5.540;2024-01-10T04:21:18;11.88;;;6.10;;
24261;SDS011;12385;51.412;5.540;2024-01-10T04:23:44;14.10;;;6.68;;
24261;SDS011;12385;51.412;5.540;2024-01-10T04:26:09;12.95;;;6.47;;
24261;SDS011;12385;51.412;5.540;2024-01-10T04:28:35;12.57;;;6.45;;
24261;SDS011;12385;51.412;5.540;2024-01-10T04:31:04;10.10;;;5.32;;
24261;SDS011;12385;51.412;5.540;2024-01-10T04:33:29;13.75;;;6.90;;
24261;SDS011;12385;51.412;5.540;2024-01-10T04:35:58;11.68;;;6.43;;
24261;SDS011;12385;51.412;5.540;2024-01-10T04:38:24;12.57;;;6.40;;
24261;SDS011;12385;51.412;5.540;2024-01-10T04:40:51;14.48;;;6.45;;
24261;SDS011;12385;51.412;5.540;2024-01-10T04:43:17;11.70;;;6.55;;
24261;SDS011;12385;51.412;5.540;2024-01-10T04:45:44;11.88;;;6.40;;
24261;SDS011;12385;51.412;5.540;2024-01-10T04:48:10;11.73;;;6.50;;
24261;SDS011;12385;51.412;5.540;2024-01-10T04:50:35;10.98;;;6.18;;
24261;SDS011;12385;51.412;5.540;2024-01-10T04:53:01;12.65;;;6.80;;
24261;SDS011;12385;51.412;5.540;2024-01-10T04:55:27;13.27;;;6.80;;
24261;SDS011;12385;51.412;5.540;2024-01-10T04:57:52;14.20;;;6.95;;
24261;SDS011;12385;51.412;5.540;2024-01-10T05:00:18;15.10;;;7.30;;
24261;SDS011;12385;51.412;5.540;2024-01-10T05:02:44;13.18;;;7.15;;
24261;SDS011;12385;51.412;5.540;2024-01-10T05:05:10;12.57;;;6.95;;
24261;SDS011;12385;51.412;5.540;2024-01-10T05:07:35;13.38;;;6.45;;
24261;SDS011;12385;51.412;5.540;2024-01-10T05:10:01;14.38;;;6.93;;
24261;SDS011;12385;51.412;5.540;2024-01-10T05:12:26;12.82;;;6.47;;
24261;SDS011;12385;51.412;5.540;2024-01-10T05:14:52;14.60;;;6.75;;
24261;SDS011;12385;51.412;5.540;2024-01-10T05:17:18;15.98;;;6.95;;
24261;SDS011;12385;51.412;5.540;2024-01-10T05:19:44;16.05;;;7.05;;
24261;SDS011;12385;51.412;5.540;2024-01-10T05:22:11;14.48;;;7.03;;
24261;SDS011;12385;51.412;5.540;2024-01-10T05:24:39;13.75;;;7.07;;
24261;SDS011;12385;51.412;5.540;2024-01-10T05:27:05;14.95;;;7.35;;
24261;SDS011;12385;51.412;5.540;2024-01-10T05:29:30;14.02;;;6.63;;
24261;SDS011;12385;51.412;5.540;2024-01-10T05:31:56;13.55;;;6.90;;
24261;SDS011;12385;51.412;5.540;2024-01-10T05:34:22;13.80;;;6.90;;
24261;SDS011;12385;51.412;5.540;2024-01-10T05:36:47;12.13;;;6.53;;
24261;SDS011;12385;51.412;5.540;2024-01-10T05:39:15;13.48;;;6.82;;
24261;SDS011;12385;51.412;5.540;2024-01-10T05:41:41;14.40;;;7.22;;
24261;SDS011;12385;51.412;5.540;2024-01-10T05:44:09;12.68;;;6.10;;
24261;SDS011;12385;51.412;5.540;2024-01-10T05:46:35;13.32;;;6.95;;
24261;SDS011;12385;51.412;5.540;2024-01-10T05:49:01;13.63;;;6.85;;
24261;SDS011;12385;51.412;5.540;2024-01-10T05:51:27;15.75;;;7.13;;
24261;SDS011;12385;51.412;5.540;2024-01-10T05:53:53;13.70;;;7.00;;
24261;SDS011;12385;51.412;5.540;2024-01-10T05:56:19;15.05;;;7.32;;
24261;SDS011;12385;51.412;5.540;2024-01-10T05:58:44;16.17;;;7.78;;
24261;SDS011;12385;51.412;5.540;2024-01-10T06:01:10;14.52;;;7.13;;
24261;SDS011;12385;51.412;5.540;2024-01-10T06:03:36;15.00;;;7.45;;
24261;SDS011;12385;51.412;5.540;2024-01-10T06:06:02;15.30;;;7.63;;
24261;SDS011;12385;51.412;5.540;2024-01-10T06:08:28;14.60;;;8.18;;
24261;SDS011;12385;51.412;5.540;2024-01-10T06:10:54;17.33;;;7.78;;
24261;SDS011;12385;51.412;5.540;2024-01-10T06:13:19;14.23;;;7.53;;
24261;SDS011;12385;51.412;5.540;2024-01-10T06:15:45;13.55;;;6.80;;
24261;SDS011;12385;51.412;5.540;2024-01-10T06:18:10;15.90;;;7.93;;
24261;SDS011;12385;51.412;5.540;2024-01-10T06:20:36;15.30;;;7.40;;
24261;SDS011;12385;51.412;5.540;2024-01-10T06:23:04;16.17;;;7.57;;
24261;SDS011;12385;51.412;5.540;2024-01-10T06:25:29;14.25;;;7.82;;
24261;SDS011;12385;51.412;5.540;2024-01-10T06:27:55;16.92;;;7.75;;
24261;SDS011;12385;51.412;5.540;2024-01-10T06:30:21;15.38;;;7.18;;
24261;SDS011;12385;51.412;5.540;2024-01-10T06:32:47;15.13;;;7.90;;
24261;SDS011;12385;51.412;5.540;2024-01-10T06:35:16;19.90;;;8.38;;
24261;SDS011;12385;51.412;5.540;2024-01-10T06:37:44;13.00;;;7.57;;
24261;SDS011;12385;51.412;5.540;2024-01-10T06:40:11;16.30;;;7.80;;
24261;SDS011;12385;51.412;5.540;2024-01-10T06:42:41;16.95;;;8.27;;
24261;SDS011;12385;51.412;5.540;2024-01-10T06:45:10;15.60;;;7.63;;
24261;SDS011;12385;51.412;5.540;2024-01-10T06:47:40;18.70;;;7.85;;
24261;SDS011;12385;51.412;5.540;2024-01-10T06:50:05;16.15;;;7.63;;
24261;SDS011;12385;51.412;5.540;2024-01-10T06:52:34;14.35;;;7.40;;
24261;SDS011;12385;51.412;5.540;2024-01-10T06:54:59;16.23;;;7.75;;
24261;SDS011;12385;51.412;5.540;2024-01-10T06:57:25;15.60;;;7.45;;
24261;SDS011;12385;51.412;5.540;2024-01-10T06:59:52;15.18;;;8.10;;
24261;SDS011;12385;51.412;5.540;2024-01-10T07:02:18;15.63;;;7.80;;
24261;SDS011;12385;51.412;5.540;2024-01-10T07:04:44;15.50;;;7.30;;
24261;SDS011;12385;51.412;5.540;2024-01-10T07:07:16;20.98;;;8.38;;
24261;SDS011;12385;51.412;5.540;2024-01-10T07:09:44;16.25;;;7.97;;
24261;SDS011;12385;51.412;5.540;2024-01-10T07:12:10;17.88;;;8.80;;
24261;SDS011;12385;51.412;5.540;2024-01-10T07:14:36;15.05;;;8.23;;
24261;SDS011;12385;51.412;5.540;2024-01-10T07:17:02;15.40;;;8.18;;
24261;SDS011;12385;51.412;5.540;2024-01-10T07:19:28;16.65;;;8.10;;
24261;SDS011;12385;51.412;5.540;2024-01-10T07:21:53;17.65;;;8.07;;
24261;SDS011;12385;51.412;5.540;2024-01-10T07:24:20;17.27;;;8.32;;
24261;SDS011;12385;51.412;5.540;2024-01-10T07:26:46;15.45;;;8.02;;
24261;SDS011;12385;51.412;5.540;2024-01-10T07:29:15;14.45;;;7.10;;
24261;SDS011;12385;51.412;5.540;2024-01-10T07:31:41;18.07;;;8.20;;
24261;SDS011;12385;51.412;5.540;2024-01-10T07:34:06;19.25;;;8.05;;
24261;SDS011;12385;51.412;5.540;2024-01-10T07:36:32;20.40;;;8.13;;
24261;SDS011;12385;51.412;5.540;2024-01-10T07:38:59;18.85;;;8.20;;
24261;SDS011;12385;51.412;5.540;2024-01-10T07:41:29;15.13;;;8.30;;
24261;SDS011;12385;51.412;5.540;2024-01-10T07:43:55;18.63;;;8.48;;
24261;SDS011;12385;51.412;5.540;2024-01-10T07:46:20;18.70;;;8.85;;
24261;SDS011;12385;51.412;5.540;2024-01-10T07:48:47;19.83;;;8.50;;
24261;SDS011;12385;51.412;5.540;2024-01-10T07:51:15;18.50;;;8.38;;
24261;SDS011;12385;51.412;5.540;2024-01-10T07:53:41;19.25;;;8.10;;
24261;SDS011;12385;51.412;5.540;2024-01-10T07:56:07;18.95;;;8.35;;
24261;SDS011;12385;51.412;5.540;2024-01-10T07:58:32;17.85;;;8.43;;
24261;SDS011;12385;51.412;5.540;2024-01-10T08:00:58;18.58;;;8.07;;
24261;SDS011;12385;51.412;5.540;2024-01-10T08:03:24;18.08;;;7.70;;
24261;SDS011;12385;51.412;5.540;2024-01-10T08:05:50;17.45;;;8.50;;
24261;SDS011;12385;51.412;5.540;2024-01-10T08:08:16;17.58;;;8.20;;
24261;SDS011;12385;51.412;5.540;2024-01-10T08:10:42;16.30;;;8.85;;
24261;SDS011;12385;51.412;5.540;2024-01-10T08:13:10;20.17;;;8.77;;
24261;SDS011;12385;51.412;5.540;2024-01-10T08:15:35;17.98;;;9.20;;
24261;SDS011;12385;51.412;5.540;2024-01-10T08:18:01;17.08;;;8.68;;
24261;SDS011;12385;51.412;5.540;2024-01-10T08:20:28;18.63;;;9.23;;
24261;SDS011;12385;51.412;5.540;2024-01-10T08:22:54;17.15;;;8.73;;
24261;SDS011;12385;51.412;5.540;2024-01-10T08:25:22;18.27;;;8.43;;
24261;SDS011;12385;51.412;5.540;2024-01-10T08:27:48;20.05;;;8.77;;
24261;SDS011;12385;51.412;5.540;2024-01-10T08:30:15;17.75;;;8.98;;
24261;SDS011;12385;51.412;5.540;2024-01-10T08:32:44;20.27;;;9.23;;
24261;SDS011;12385;51.412;5.540;2024-01-10T08:35:10;20.08;;;9.68;;
24261;SDS011;12385;51.412;5.540;2024-01-10T08:37:36;18.42;;;9.02;;
24261;SDS011;12385;51.412;5.540;2024-01-10T08:40:02;19.35;;;9.10;;
24261;SDS011;12385;51.412;5.540;2024-01-10T08:42:32;19.70;;;9.30;;
24261;SDS011;12385;51.412;5.540;2024-01-10T08:44:58;20.63;;;9.65;;
24261;SDS011;12385;51.412;5.540;2024-01-10T08:47:24;19.35;;;9.20;;
24261;SDS011;12385;51.412;5.540;2024-01-10T08:49:49;24.67;;;9.77;;
24261;SDS011;12385;51.412;5.540;2024-01-10T08:52:16;19.73;;;9.15;;
24261;SDS011;12385;51.412;5.540;2024-01-10T08:54:41;22.67;;;10.40;;
24261;SDS011;12385;51.412;5.540;2024-01-10T08:57:09;20.63;;;9.57;;
24261;SDS011;12385;51.412;5.540;2024-01-10T08:59:35;19.27;;;9.63;;
24261;SDS011;12385;51.412;5.540;2024-01-10T09:02:01;22.88;;;9.88;;
24261;SDS011;12385;51.412;5.540;2024-01-10T09:04:27;20.92;;;10.00;;
24261;SDS011;12385;51.412;5.540;2024-01-10T09:06:53;21.30;;;10.02;;
24261;SDS011;12385;51.412;5.540;2024-01-10T09:09:18;21.83;;;10.18;;
24261;SDS011;12385;51.412;5.540;2024-01-10T09:11:46;20.15;;;10.25;;
24261;SDS011;12385;51.412;5.540;2024-01-10T09:14:14;24.02;;;9.75;;
24261;SDS011;12385;51.412;5.540;2024-01-10T09:16:40;20.52;;;9.10;;
24261;SDS011;12385;51.412;5.540;2024-01-10T09:19:06;24.17;;;10.75;;
24261;SDS011;12385;51.412;5.540;2024-01-10T09:21:32;24.48;;;10.25;;
24261;SDS011;12385;51.412;5.540;2024-01-10T09:23:57;19.48;;;10.50;;
24261;SDS011;12385;51.412;5.540;2024-01-10T09:26:23;23.23;;;10.13;;
24261;SDS011;12385;51.412;5.540;2024-01-10T09:28:49;20.50;;;9.73;;
24261;SDS011;12385;51.412;5.540;2024-01-10T09:31:15;26.67;;;11.25;;
24261;SDS011;12385;51.412;5.540;2024-01-10T09:33:46;22.85;;;10.60;;
24261;SDS011;12385;51.412;5.540;2024-01-10T09:36:11;23.15;;;10.88;;
24261;SDS011;12385;51.412;5.540;2024-01-10T09:38:40;20.27;;;8.90;;
24261;SDS011;12385;51.412;5.540;2024-01-10T09:41:06;24.40;;;11.18;;
24261;SDS011;12385;51.412;5.540;2024-01-10T09:43:32;22.77;;;11.07;;
24261;SDS011;12385;51.412;5.540;2024-01-10T09:46:01;21.88;;;12.05;;
24261;SDS011;12385;51.412;5.540;2024-01-10T09:48:30;20.83;;;11.00;;
24261;SDS011;12385;51.412;5.540;2024-01-10T09:50:56;21.08;;;10.85;;
24261;SDS011;12385;51.412;5.540;2024-01-10T09:53:22;30.58;;;11.88;;
24261;SDS011;12385;51.412;5.540;2024-01-10T09:55:49;24.90;;;11.65;;
24261;SDS011;12385;51.412;5.540;2024-01-10T09:58:15;23.23;;;11.50;;
24261;SDS011;12385;51.412;5.540;2024-01-10T10:00:41;26.13;;;12.10;;
24261;SDS011;12385;51.412;5.540;2024-01-10T10:03:10;27.80;;;11.45;;
24261;SDS011;12385;51.412;5.540;2024-01-10T10:05:40;27.08;;;11.90;;
24261;SDS011;12385;51.412;5.540;2024-01-10T10:08:10;26.38;;;11.95;;
24261;SDS011;12385;51.412;5.540;2024-01-10T10:10:40;25.98;;;11.70;;
24261;SDS011;12385;51.412;5.540;2024-01-10T10:15:45;26.15;;;11.18;;
24261;SDS011;12385;51.412;5.540;2024-01-10T10:18:26;25.60;;;12.00;;
24261;SDS011;12385;51.412;5.540;2024-01-10T10:21:11;23.83;;;12.05;;
24261;SDS011;12385;51.412;5.540;2024-01-10T10:23:42;24.60;;;11.95;;
24261;SDS011;12385;51.412;5.540;2024-01-10T10:26:22;29.65;;;11.75;;
24261;SDS011;12385;51.412;5.540;2024-01-10T10:28:49;26.60;;;11.93;;
24261;SDS011;12385;51.412;5.540;2024-01-10T10:31:16;25.17;;;11.73;;
24261;SDS011;12385;51.412;5.540;2024-01-10T10:33:44;29.70;;;11.73;;
24261;SDS011;12385;51.412;5.540;2024-01-10T10:36:14;25.52;;;12.25;;
24261;SDS011;12385;51.412;5.540;2024-01-10T10:38:40;25.02;;;12.48;;
24261;SDS011;12385;51.412;5.540;2024-01-10T10:41:06;25.77;;;11.15;;
24261;SDS011;12385;51.412;5.540;2024-01-10T10:43:36;26.30;;;11.77;;
24261;SDS011;12385;51.412;5.540;2024-01-10T10:46:06;22.92;;;11.63;;
24261;SDS011;12385;51.412;5.540;2024-01-10T10:48:35;29.30;;;12.63;;
24261;SDS011;12385;51.412;5.540;2024-01-10T10:51:04;25.15;;;11.82;;
24261;SDS011;12385;51.412;5.540;2024-01-10T10:53:38;27.55;;;12.60;;
24261;SDS011;12385;51.412;5.540;2024-01-10T10:56:05;26.55;;;12.88;;
24261;SDS011;12385;51.412;5.540;2024-01-10T10:58:42;24.92;;;12.38;;
24261;SDS011;12385;51.412;5.540;2024-01-10T11:01:11;26.90;;;11.82;;
24261;SDS011;12385;51.412;5.540;2024-01-10T11:03:40;27.05;;;12.50;;
24261;SDS011;12385;51.412;5.540;2024-01-10T11:06:20;26.13;;;12.68;;
24261;SDS011;12385;51.412;5.540;2024-01-10T11:08:52;26.42;;;12.13;;
24261;SDS011;12385;51.412;5.540;2024-01-10T11:11:42;26.60;;;12.65;;
24261;SDS011;12385;51.412;5.540;2024-01-10T11:14:52;27.17;;;12.23;;
24261;SDS011;12385;51.412;5.540;2024-01-10T11:25:32;28.35;;;12.50;;
24261;SDS011;12385;51.412;5.540;2024-01-10T11:28:02;24.88;;;12.02;;
24261;SDS011;12385;51.412;5.540;2024-01-10T11:30:33;24.90;;;12.40;;
24261;SDS011;12385;51.412;5.540;2024-01-10T11:33:01;27.42;;;13.07;;
24261;SDS011;12385;51.412;5.540;2024-01-10T11:35:27;30.85;;;12.65;;
24261;SDS011;12385;51.412;5.540;2024-01-10T11:37:57;25.77;;;12.07;;
24261;SDS011;12385;51.412;5.540;2024-01-10T11:40:58;24.88;;;12.05;;
24261;SDS011;12385;51.412;5.540;2024-01-10T11:43:17;26.40;;;11.82;;
24261;SDS011;12385;51.412;5.540;2024-01-10T11:45:52;25.90;;;12.15;;
24261;SDS011;12385;51.412;5.540;2024-01-10T11:48:29;27.25;;;12.85;;
24261;SDS011;12385;51.412;5.540;2024-01-10T11:50:59;26.63;;;13.10;;
24261;SDS011;12385;51.412;5.540;2024-01-10T11:53:38;28.02;;;12.65;;
24261;SDS011;12385;51.412;5.540;2024-01-10T11:56:15;24.27;;;12.10;;
24261;SDS011;12385;51.412;5.540;2024-01-10T11:58:55;26.73;;;11.95;;
24261;SDS011;12385;51.412;5.540;2024-01-10T12:01:20;26.08;;;12.55;;
24261;SDS011;12385;51.412;5.540;2024-01-10T12:03:49;24.85;;;12.30;;
24261;SDS011;12385;51.412;5.540;2024-01-10T12:06:18;30.60;;;13.02;;
24261;SDS011;12385;51.412;5.540;2024-01-10T12:08:45;23.75;;;12.38;;
24261;SDS011;12385;51.412;5.540;2024-01-10T12:11:11;22.70;;;11.98;;
24261;SDS011;12385;51.412;5.540;2024-01-10T12:13:39;24.77;;;13.50;;
24261;SDS011;12385;51.412;5.540;2024-01-10T12:16:05;24.13;;;12.00;;
24261;SDS011;12385;51.412;5.540;2024-01-10T12:18:30;26.45;;;12.60;;
24261;SDS011;12385;51.412;5.540;2024-01-10T12:20:56;27.75;;;13.20;;
24261;SDS011;12385;51.412;5.540;2024-01-10T12:23:22;25.85;;;12.65;;
24261;SDS011;12385;51.412;5.540;2024-01-10T12:25:48;26.02;;;12.93;;
24261;SDS011;12385;51.412;5.540;2024-01-10T12:28:17;25.48;;;13.05;;
24261;SDS011;12385;51.412;5.540;2024-01-10T12:30:44;27.95;;;13.63;;
24261;SDS011;12385;51.412;5.540;2024-01-10T12:33:10;25.27;;;12.93;;
24261;SDS011;12385;51.412;5.540;2024-01-10T12:35:35;24.65;;;11.85;;
24261;SDS011;12385;51.412;5.540;2024-01-10T12:38:03;26.75;;;12.57;;
24261;SDS011;12385;51.412;5.540;2024-01-10T12:40:29;26.15;;;12.95;;
24261;SDS011;12385;51.412;5.540;2024-01-10T12:43:03;31.98;;;13.80;;
24261;SDS011;12385;51.412;5.540;2024-01-10T12:45:30;26.17;;;12.80;;
24261;SDS011;12385;51.412;5.540;2024-01-10T12:47:57;25.70;;;12.52;;
24261;SDS011;12385;51.412;5.540;2024-01-10T12:50:22;24.45;;;13.07;;
24261;SDS011;12385;51.412;5.540;2024-01-10T12:52:50;28.85;;;13.35;;
24261;SDS011;12385;51.412;5.540;2024-01-10T12:55:16;26.17;;;13.60;;
24261;SDS011;12385;51.412;5.540;2024-01-10T12:57:45;27.50;;;13.32;;
24261;SDS011;12385;51.412;5.540;2024-01-10T13:00:11;26.75;;;13.63;;
24261;SDS011;12385;51.412;5.540;2024-01-10T13:02:39;26.52;;;13.80;;
24261;SDS011;12385;51.412;5.540;2024-01-10T13:05:06;26.00;;;13.63;;
24261;SDS011;12385;51.412;5.540;2024-01-10T13:07:35;27.80;;;13.83;;
24261;SDS011;12385;51.412;5.540;2024-01-10T13:10:01;32.30;;;14.50;;
24261;SDS011;12385;51.412;5.540;2024-01-10T13:12:27;30.38;;;13.98;;
24261;SDS011;12385;51.412;5.540;2024-01-10T13:14:53;28.50;;;14.80;;
24261;SDS011;12385;51.412;5.540;2024-01-10T13:17:19;28.42;;;14.07;;
24261;SDS011;12385;51.412;5.540;2024-01-10T13:19:46;28.85;;;14.32;;
24261;SDS011;12385;51.412;5.540;2024-01-10T13:22:15;31.07;;;14.30;;
24261;SDS011;12385;51.412;5.540;2024-01-10T13:24:44;27.25;;;14.18;;
24261;SDS011;12385;51.412;5.540;2024-01-10T13:27:11;28.17;;;14.05;;
24261;SDS011;12385;51.412;5.540;2024-01-10T13:29:40;27.42;;;14.73;;
24261;SDS011;12385;51.412;5.540;2024-01-10T13:32:06;28.35;;;14.85;;
24261;SDS011;12385;51.412;5.540;2024-01-10T13:34:32;31.70;;;14.25;;
24261;SDS011;12385;51.412;5.540;2024-01-10T13:36:58;32.95;;;14.98;;
24261;SDS011;12385;51.412;5.540;2024-01-10T13:39:23;31.88;;;14.35;;
24261;SDS011;12385;51.412;5.540;2024-01-10T13:41:49;31.42;;;15.13;;
24261;SDS011;12385;51.412;5.540;2024-01-10T13:44:16;30.75;;;14.90;;
24261;SDS011;12385;51.412;5.540;2024-01-10T13:46:41;29.35;;;13.82;;
24261;SDS011;12385;51.412;5.540;2024-01-10T13:49:11;31.77;;;15.37;;
24261;SDS011;12385;51.412;5.540;2024-01-10T13:51:36;26.08;;;14.05;;
24261;SDS011;12385;51.412;5.540;2024-01-10T13:54:02;30.88;;;15.38;;
24261;SDS011;12385;51.412;5.540;2024-01-10T13:56:27;31.73;;;15.95;;
24261;SDS011;12385;51.412;5.540;2024-01-10T13:58:55;30.17;;;15.57;;
24261;SDS011;12385;51.412;5.540;2024-01-10T14:01:21;30.50;;;14.90;;
24261;SDS011;12385;51.412;5.540;2024-01-10T14:03:46;31.35;;;15.43;;
24261;SDS011;12385;51.412;5.540;2024-01-10T14:06:16;30.13;;;15.88;;
24261;SDS011;12385;51.412;5.540;2024-01-10T14:08:45;29.75;;;14.45;;
24261;SDS011;12385;51.412;5.540;2024-01-10T14:11:14;24.40;;;11.88;;
24261;SDS011;12385;51.412;5.540;2024-01-10T14:13:40;28.80;;;14.82;;
24261;SDS011;12385;51.412;5.540;2024-01-10T14:16:06;32.55;;;14.63;;
24261;SDS011;12385;51.412;5.540;2024-01-10T14:18:38;30.02;;;15.07;;
24261;SDS011;12385;51.412;5.540;2024-01-10T14:21:03;31.08;;;14.77;;
24261;SDS011;12385;51.412;5.540;2024-01-10T14:23:30;36.40;;;15.30;;
24261;SDS011;12385;51.412;5.540;2024-01-10T14:25:56;29.10;;;15.13;;
24261;SDS011;12385;51.412;5.540;2024-01-10T14:28:21;33.42;;;14.90;;
24261;SDS011;12385;51.412;5.540;2024-01-10T14:30:47;31.67;;;15.57;;
24261;SDS011;12385;51.412;5.540;2024-01-10T14:33:14;32.03;;;15.38;;
24261;SDS011;12385;51.412;5.540;2024-01-10T14:35:40;26.58;;;14.60;;
24261;SDS011;12385;51.412;5.540;2024-01-10T14:38:07;29.35;;;14.45;;
24261;SDS011;12385;51.412;5.540;2024-01-10T14:40:33;31.10;;;15.15;;